createdAt,value
2022-10-12T00:05:40.232Z,40.69
2022-10-12T00:13:16.527Z,40.45
2022-10-12T00:20:49.327Z,40.56
2022-10-12T00:28:38.820Z,40.5
2022-10-12T00:36:11.342Z,40.47
2022-10-12T00:43:47.743Z,40.35
2022-10-12T00:51:43.911Z,40.29
2022-10-12T00:59:29.274Z,40.09
2022-10-12T01:07:17.305Z,40.3
2022-10-12T01:14:40.452Z,40.31
2022-10-12T01:22:46.101Z,40.35
2022-10-12T01:31:12.891Z,40.45
2022-10-12T01:39:33.477Z,40.32
2022-10-12T01:47:34.535Z,40.42
2022-10-12T01:55:39.804Z,40.51
2022-10-12T02:04:03.214Z,40.41
2022-10-12T02:12:30.257Z,40.41
2022-10-12T02:20:39.777Z,40.4
2022-10-12T02:28:32.397Z,40.41
2022-10-12T02:36:43.633Z,40.48
2022-10-12T02:44:57.405Z,40.44
2022-10-12T02:52:53.321Z,40.45
2022-10-12T03:00:37.639Z,40.48
2022-10-12T03:08:17.407Z,40.43
2022-10-12T03:15:44.611Z,40.44
2022-10-12T03:23:25.415Z,40.42
2022-10-12T03:30:55.980Z,40.38
2022-10-12T03:38:37.680Z,40.39
2022-10-12T03:46:24.967Z,40.42
2022-10-12T03:54:06.864Z,40.38
2022-10-12T04:01:52.020Z,40.43
2022-10-12T04:09:34.470Z,40.5
2022-10-12T04:17:08.070Z,40.46
2022-10-12T04:24:53.427Z,40.39
2022-10-12T04:32:33.437Z,40.44
2022-10-12T04:40:16.371Z,40.45
2022-10-12T04:47:56.084Z,40.52
2022-10-12T04:55:44.622Z,40.55
2022-10-12T05:03:24.324Z,40.54
2022-10-12T05:10:58.028Z,40.51
2022-10-12T05:18:34.857Z,40.4
2022-10-12T05:26:14.872Z,40.52
2022-10-12T05:33:57.893Z,40.6
2022-10-12T05:41:37.557Z,40.46
2022-10-12T05:49:18.063Z,40.55
2022-10-12T05:57:00.201Z,40.51
2022-10-12T06:04:29.521Z,40.43
2022-10-12T06:12:08.354Z,40.37
2022-10-12T06:19:58.042Z,40.39
2022-10-12T06:27:35.410Z,40.36
2022-10-12T06:35:17.917Z,40.32
2022-10-12T06:43:15.977Z,40.34
2022-10-12T06:51:06.480Z,40.23
2022-10-12T06:58:52.056Z,40.14
2022-10-12T07:07:01.577Z,40.14
2022-10-12T07:14:56.077Z,40.13
2022-10-12T07:22:33.907Z,40.17
2022-10-12T07:30:24.004Z,40.21
2022-10-12T07:38:13.862Z,40.16
2022-10-12T07:46:04.249Z,40.14
2022-10-12T07:53:56.175Z,40.16
2022-10-12T08:01:48.226Z,40.12
2022-10-12T08:09:37.485Z,40.08
2022-10-12T08:17:35.588Z,40.11
2022-10-12T08:25:11.897Z,40.17
2022-10-12T08:33:00.665Z,40.13
2022-10-12T08:41:09.557Z,40.06
2022-10-12T08:49:35.143Z,39.96
2022-10-12T08:58:02.535Z,39.97
2022-10-12T09:06:07.784Z,40.07
2022-10-12T09:14:43.824Z,39.95
2022-10-12T09:23:27.218Z,39.91
2022-10-12T09:32:14.787Z,39.93
2022-10-12T09:40:35.890Z,40
2022-10-12T09:48:49.119Z,39.96
2022-10-12T09:57:13.192Z,39.92
2022-10-12T10:05:12.322Z,39.96
2022-10-12T10:13:29.702Z,39.7
2022-10-12T10:22:22.178Z,39.61
2022-10-12T10:30:33.724Z,39.81
2022-10-12T10:39:03.679Z,39.85
2022-10-12T10:47:30.175Z,39.82
2022-10-12T10:55:59.174Z,39.74
2022-10-12T11:04:29.907Z,39.79
2022-10-12T11:12:50.370Z,39.83
2022-10-12T11:21:06.588Z,39.91
2022-10-12T11:29:17.306Z,39.83
2022-10-12T11:37:27.789Z,39.88
2022-10-12T11:46:02.167Z,39.87
2022-10-12T11:54:28.828Z,39.83
2022-10-12T12:02:49.418Z,39.68
2022-10-12T12:11:04.295Z,39.85
2022-10-12T12:19:00.868Z,39.64
2022-10-12T12:27:01.833Z,40.32
2022-10-12T12:35:04.893Z,39.82
2022-10-12T12:43:14.161Z,39.68
2022-10-12T12:51:09.223Z,39.78
2022-10-12T12:59:05.736Z,39.73
2022-10-12T13:07:15.259Z,39.84
2022-10-12T13:15:05.858Z,39.82
2022-10-12T13:23:10.544Z,39.7
2022-10-12T13:31:20.180Z,39.47
2022-10-12T13:39:08.754Z,39.59
2022-10-12T13:47:16.164Z,39.44
2022-10-12T13:55:17.258Z,39.65
2022-10-12T14:03:26.107Z,39.36
2022-10-12T14:11:33.952Z,39.39
2022-10-12T14:19:21.663Z,39.4
2022-10-12T14:27:32.416Z,39.1
2022-10-12T14:35:48.342Z,38.89
2022-10-12T14:43:52.799Z,38.7
2022-10-12T14:51:39.253Z,38.85
2022-10-12T14:59:29.459Z,39.13
2022-10-12T15:07:08.230Z,39.26
2022-10-12T15:14:56.436Z,39.56
2022-10-12T15:22:26.310Z,39.58
2022-10-12T15:30:08.484Z,39.61
2022-10-12T15:37:49.851Z,39.68
2022-10-12T15:45:37.797Z,39.83
2022-10-12T15:53:36.113Z,39.8
2022-10-12T16:01:08.663Z,39.86
2022-10-12T16:08:46.463Z,39.88
2022-10-12T16:16:31.441Z,39.91
2022-10-12T16:24:19.300Z,39.91
2022-10-12T16:31:59.394Z,39.94
2022-10-12T16:39:39.806Z,39.97
2022-10-12T16:47:02.326Z,39.99
2022-10-12T16:54:34.999Z,40.01
2022-10-12T17:02:11.321Z,39.91
2022-10-12T17:09:55.103Z,39.95
2022-10-12T17:17:25.558Z,40.02
2022-10-12T17:25:07.705Z,40.02
2022-10-12T17:32:35.584Z,40.1
2022-10-12T17:40:16.859Z,40.15
2022-10-12T17:47:43.429Z,40.07
2022-10-12T17:55:29.882Z,40.1
2022-10-12T18:02:55.153Z,40.19
2022-10-12T18:10:35.275Z,40.18
2022-10-12T18:18:20.493Z,39.97
2022-10-12T18:25:48.882Z,40.09
2022-10-12T18:33:40.351Z,40.08
2022-10-12T18:41:09.764Z,40.16
2022-10-12T18:48:49.894Z,40.2
2022-10-12T18:56:34.026Z,40.07
2022-10-12T19:04:24.548Z,40.21
2022-10-12T19:12:05.389Z,40.3
2022-10-12T19:19:49.938Z,40.28
2022-10-12T19:27:35.716Z,40.3
2022-10-12T19:35:28.941Z,40.34
2022-10-12T19:43:22.326Z,40.37
2022-10-12T19:51:08.977Z,40.39
2022-10-12T19:58:55.717Z,40.38
2022-10-12T20:06:48.396Z,40.32
2022-10-12T20:14:18.932Z,40.29
2022-10-12T20:21:52.392Z,40.31
2022-10-12T20:29:32.861Z,40.3
2022-10-12T20:37:19.582Z,40.34
2022-10-12T20:45:03.630Z,40.38
2022-10-12T20:52:47.701Z,40.32
2022-10-12T21:00:33.484Z,40.27
2022-10-12T21:08:10.172Z,40.28
2022-10-12T21:15:54.094Z,40.34
2022-10-12T21:23:54.256Z,40.33
2022-10-12T21:31:33.605Z,40.31
2022-10-12T21:39:19.777Z,40.19
2022-10-12T21:47:19.115Z,40.19
2022-10-12T21:54:53.880Z,40.22
2022-10-12T22:02:41.844Z,40.22
2022-10-12T22:10:28.935Z,40.2
2022-10-12T22:18:20.497Z,40.17
2022-10-12T22:26:11.659Z,40.22
2022-10-12T22:33:57.838Z,40.15
2022-10-12T22:41:45.885Z,40.22
2022-10-12T22:49:24.640Z,40.23
2022-10-12T22:57:07.288Z,40.18
2022-10-12T23:04:45.015Z,40.2
2022-10-12T23:12:34.202Z,40.17
2022-10-12T23:20:01.884Z,40.1
2022-10-12T23:27:50.128Z,40.02
2022-10-12T23:35:55.147Z,40.12
2022-10-12T23:43:28.551Z,40.09
2022-10-12T23:51:12.148Z,40.11
2022-10-12T23:58:50.313Z,40.23
